Terminal Aerodrome Forecast
Issued by NWS Wilmington, OH

Current Version | Previous Version | Graphics & Text | Print | Product List | Glossary On
Versions: 1 2 3 4 5 6 7 8 9 10 11 12 13 14 15 16 17
000
FTUS41 KILN 291138
TAFDAY
TAF
KDAY 291138Z 2912/3012 15005KT P6SM BKN060 OVC200
     FM291400 22008KT P6SM BKN040 OVC150
     FM292000 22008KT P6SM VCSH BKN040 OVC120
     FM300200 18005KT P6SM VCSH BKN035 BKN090=

USA.gov is the U.S. government's official web portal to all federal, state and local government web resources and services.